Indian River, MI

1:16 PM EDT on July 24, 2016 (GMT -0400)
Northwest Burt Lake | | Change Station

Elev 626 ft 45.51 °N, 84.70 °W | Updated 1 minute ago

Overcast
Overcast
80.4 °F
Feels Like 85 °F
N
0.0
Wind Variable Wind from WNW
Gusts 3.0 mph

Today
High -- | Low -- °F
--% Chance of Precip.
Yesterday
High -- | Low -- °F
Precip. -- in
Pressure 29.82 in
Visibility 10.0 miles
Clouds Overcast 2800 ft
Heat Index 85 °F
Dew Point 73 °F
Humidity 78%
Rainfall 0.00 in
Snow Depth Not available.
6:14 AM 9:15 PM
Waning Gibbous, 74% visible
METAR KPLN 241654Z AUTO 24009KT 10SM OVC028 27/21 A2983 RMK AO2 SLP098 T02670211
Pressure 29.82 in
Visibility 10.0 miles
Clouds Overcast 2800 ft
Heat Index 85 °F
Dew Point 73 °F
Humidity 78%
Rainfall 0.00 in
Snow Depth Not available.
6:14 AM 9:15 PM
Waning Gibbous, 74% visible
METAR KPLN 241654Z AUTO 24009KT 10SM OVC028 27/21 A2983 RMK AO2 SLP098 T02670211

10-Day Weather Forecast

Almanac

Astronomy

Jul. 24, 2016 Rise Set
Actual Time
Civil Twilight
Nautical Twilight
Astronomical Twilight
Moon
Length of Visible Light
Length of Day
Tomorrow will be .
, % of the Moon is Illuminated

Today's Extremes

State Highs State Lows

Community

WunderPhotos

Upload Photos

1,927,125 photos uploaded!

WunderBlog® & News

Nearby

Air Quality

  Air Quality AQ Index Pollutant
Not available.

Snow Depth

Station Depth Elevation

Earthquake Activity

City Distance Mag. Time & Date
Minimum magnitude displayed is 2.5.

Coastal Water Temperatures

Place Temperature

Stations

Nearby Weather Stations

Station Location Temp. Windchill Dew Point Humidity Wind Precip. Elev Updated Type
                   

Watches & Warnings

There are currently no watches in effect.